createdAt,value
2019-02-28T00:01:47.213Z,14.07
2019-02-28T00:04:32.754Z,15.17
2019-02-28T00:07:01.240Z,12.43
2019-02-28T00:09:50.411Z,17.67
2019-02-28T00:12:20.284Z,16.83
2019-02-28T00:15:09.469Z,15.23
2019-02-28T00:17:51.764Z,13.97
2019-02-28T00:20:33.363Z,13.67
2019-02-28T00:23:14.856Z,13.23
2019-02-28T00:25:57.169Z,13.70
2019-02-28T00:28:38.626Z,13.73
2019-02-28T00:34:23.000Z,14.83
2019-02-28T00:37:00.420Z,13.73
2019-02-28T00:39:31.448Z,14.27
2019-02-28T00:42:33.270Z,14.03
2019-02-28T00:45:14.765Z,14.37
2019-02-28T00:47:56.186Z,14.50
2019-02-28T00:50:38.465Z,17.70
2019-02-28T00:53:19.948Z,16.47
2019-02-28T00:56:02.279Z,14.77
2019-02-28T00:58:43.781Z,12.13
2019-02-28T01:01:25.117Z,16.07
2019-02-28T01:04:07.416Z,12.73
2019-02-28T01:06:49.801Z,13.30
2019-02-28T01:09:32.082Z,16.77
2019-02-28T01:12:18.712Z,16.20
2019-02-28T01:14:57.068Z,15.63
2019-02-28T01:17:39.385Z,18.67
2019-02-28T01:20:20.796Z,14.73
2019-02-28T01:23:03.076Z,12.17
2019-02-28T01:25:45.282Z,13.27
2019-02-28T01:28:27.647Z,14.87
2019-02-28T01:31:11.622Z,15.97
2019-02-28T01:33:53.084Z,19.67
2019-02-28T01:36:35.449Z,15.83
2019-02-28T01:39:15.700Z,13.47
2019-02-28T01:41:57.888Z,16.47
2019-02-28T01:44:39.537Z,12.63
2019-02-28T01:47:09.663Z,15.83
2019-02-28T01:53:01.820Z,16.30
2019-02-28T01:55:44.059Z,16.10
2019-02-28T01:58:25.828Z,19.90
2019-02-28T02:01:07.651Z,16.53
2019-02-28T02:03:49.968Z,17.53
2019-02-28T02:06:30.105Z,14.83
2019-02-28T02:09:19.421Z,11.17
2019-02-28T02:12:20.728Z,16.83
2019-02-28T02:15:02.256Z,16.47
2019-02-28T02:17:43.663Z,20.50
2019-02-28T02:20:26.307Z,16.17
2019-02-28T02:23:09.103Z,20.07
2019-02-28T02:25:50.538Z,17.97
2019-02-28T02:28:31.952Z,14.83
2019-02-28T02:31:14.225Z,16.97
2019-02-28T02:33:55.869Z,13.90
2019-02-28T02:36:38.093Z,14.47
2019-02-28T02:39:20.337Z,17.20
2019-02-28T02:42:10.059Z,15.97
2019-02-28T02:44:46.599Z,20.33
2019-02-28T02:47:31.405Z,13.37
2019-02-28T02:50:11.071Z,15.30
2019-02-28T02:52:53.329Z,15.87
2019-02-28T02:55:35.418Z,18.67
2019-02-28T02:58:17.014Z,16.97
2019-02-28T03:00:59.245Z,17.37
2019-02-28T03:03:44.291Z,11.83
2019-02-28T03:06:24.536Z,16.53
2019-02-28T03:09:10.180Z,14.77
2019-02-28T03:11:50.978Z,8.47
2019-02-28T03:14:32.650Z,11.17
2019-02-28T03:17:14.829Z,9.47
2019-02-28T03:19:56.364Z,16.00
2019-02-28T03:22:38.319Z,21.50
2019-02-28T03:25:19.711Z,23.10
2019-02-28T03:28:01.330Z,18.50
2019-02-28T03:30:43.213Z,17.20
2019-02-28T03:33:28.429Z,23.50
2019-02-28T03:36:08.584Z,20.20
2019-02-28T03:38:50.813Z,22.33
2019-02-28T03:41:32.943Z,16.73
2019-02-28T03:44:20.098Z,23.90
2019-02-28T03:46:58.364Z,21.03
2019-02-28T03:49:39.780Z,19.73
2019-02-28T03:52:21.185Z,25.23
2019-02-28T03:55:04.542Z,24.03
2019-02-28T03:57:45.905Z,20.83
2019-02-28T04:00:32.769Z,18.50
2019-02-28T04:03:11.041Z,27.97
2019-02-28T04:05:52.544Z,20.63
2019-02-28T04:08:33.963Z,22.50
2019-02-28T04:11:15.415Z,23.40
2019-02-28T04:13:57.172Z,26.37
2019-02-28T04:16:38.651Z,27.80
2019-02-28T04:19:22.597Z,22.00
2019-02-28T04:22:02.782Z,27.23
2019-02-28T04:24:46.238Z,22.33
2019-02-28T04:27:28.033Z,30.77
2019-02-28T04:30:09.709Z,25.73
2019-02-28T04:32:52.043Z,28.17
2019-02-28T04:35:33.525Z,29.60
2019-02-28T04:38:20.439Z,29.23
2019-02-28T04:40:59.893Z,29.37
2019-02-28T04:43:41.627Z,27.20
2019-02-28T04:46:23.872Z,25.47
2019-02-28T04:49:05.328Z,25.93
2019-02-28T04:51:37.008Z,24.43
2019-02-28T04:54:45.579Z,23.17
2019-02-28T04:57:27.256Z,26.50
2019-02-28T05:00:09.564Z,30.03
2019-02-28T05:02:54.133Z,26.20
2019-02-28T05:05:33.059Z,24.27
2019-02-28T05:08:22.219Z,24.77
2019-02-28T05:11:03.796Z,25.33
2019-02-28T05:13:48.257Z,19.10
2019-02-28T05:16:29.219Z,24.60
2019-02-28T05:19:11.480Z,24.43
2019-02-28T05:21:53.564Z,27.77
2019-02-28T05:24:42.828Z,28.43
2019-02-28T05:27:45.907Z,24.47
2019-02-28T05:30:28.187Z,21.57
2019-02-28T05:33:10.320Z,16.97
2019-02-28T05:35:52.395Z,16.93
2019-02-28T05:38:33.844Z,18.27
2019-02-28T05:41:16.042Z,12.57
2019-02-28T05:43:57.821Z,9.17
2019-02-28T05:46:39.268Z,15.97
2019-02-28T05:49:21.140Z,26.33
2019-02-28T05:52:03.396Z,11.93
2019-02-28T05:54:47.197Z,24.23
2019-02-28T05:57:28.547Z,16.27
2019-02-28T06:00:09.512Z,21.03
2019-02-28T06:02:50.933Z,16.50
2019-02-28T06:05:33.186Z,20.03
2019-02-28T06:08:14.720Z,24.70
2019-02-28T06:11:00.629Z,28.47
2019-02-28T06:13:39.199Z,21.60
2019-02-28T06:16:21.423Z,21.80
2019-02-28T06:19:04.582Z,22.73
2019-02-28T06:21:46.303Z,31.13
2019-02-28T06:24:28.546Z,27.63
2019-02-28T06:27:10.765Z,26.60
2019-02-28T06:29:52.265Z,20.37
2019-02-28T06:32:33.847Z,25.53
2019-02-28T06:35:18.607Z,23.77
2019-02-28T06:37:59.263Z,27.10
2019-02-28T06:40:40.720Z,24.23
2019-02-28T06:43:22.470Z,17.33
2019-02-28T06:46:04.657Z,32.27
2019-02-28T06:48:46.553Z,34.47
2019-02-28T06:51:28.461Z,31.17
2019-02-28T06:54:09.970Z,31.13
2019-02-28T06:56:54.118Z,33.57
2019-02-28T06:59:36.127Z,39.43
2019-02-28T07:02:18.840Z,39.43
2019-02-28T07:05:00.250Z,37.63
2019-02-28T07:07:45.621Z,27.77
2019-02-28T07:10:25.580Z,31.70
2019-02-28T07:13:07.605Z,33.97
2019-02-28T07:15:49.732Z,36.33
2019-02-28T07:18:30.047Z,37.17
2019-02-28T07:24:02.369Z,33.77
2019-02-28T07:26:44.856Z,37.23
2019-02-28T07:29:27.037Z,33.87
2019-02-28T07:32:00.296Z,33.87
2019-02-28T07:35:07.568Z,31.33
2019-02-28T07:37:53.170Z,29.23
2019-02-28T07:40:33.341Z,34.13
2019-02-28T07:43:15.233Z,36.17
2019-02-28T07:45:55.529Z,40.90
2019-02-28T07:48:44.684Z,40.23
2019-02-28T07:51:26.712Z,39.60
2019-02-28T07:54:08.367Z,37.50
2019-02-28T07:56:50.372Z,43.13
2019-02-28T07:59:32.289Z,35.67
2019-02-28T08:02:12.512Z,37.00
2019-02-28T08:05:03.021Z,39.67
2019-02-28T08:08:04.249Z,36.80
2019-02-28T08:10:47.976Z,40.17
2019-02-28T08:13:29.494Z,30.97
2019-02-28T08:16:10.923Z,31.30
2019-02-28T08:18:52.515Z,27.60
2019-02-28T08:21:34.828Z,32.33
2019-02-28T08:24:16.384Z,39.63
2019-02-28T08:26:57.784Z,40.47
2019-02-28T08:29:44.788Z,39.63
2019-02-28T08:32:23.237Z,35.80
2019-02-28T08:35:05.519Z,31.33
2019-02-28T08:37:47.823Z,33.47
2019-02-28T08:40:30.003Z,30.57
2019-02-28T08:43:10.593Z,33.80
2019-02-28T08:46:02.840Z,38.23
2019-02-28T08:49:06.076Z,34.87
2019-02-28T08:51:53.379Z,26.70
2019-02-28T08:54:34.944Z,28.83
2019-02-28T08:57:17.260Z,34.97
2019-02-28T08:59:59.072Z,29.10
2019-02-28T09:02:41.500Z,32.73
2019-02-28T09:05:26.148Z,33.53
2019-02-28T09:08:07.831Z,30.83
2019-02-28T09:10:49.551Z,31.77
2019-02-28T09:13:31.783Z,28.07
2019-02-28T09:16:14.060Z,30.90
2019-02-28T09:18:54.162Z,26.27
2019-02-28T09:21:43.313Z,34.13
2019-02-28T09:24:25.983Z,27.47
2019-02-28T09:27:08.024Z,25.27
2019-02-28T09:29:54.507Z,32.67
2019-02-28T09:32:31.925Z,31.87
2019-02-28T09:35:21.043Z,24.67
2019-02-28T09:38:06.279Z,26.30
2019-02-28T09:40:46.792Z,24.53
2019-02-28T09:43:28.423Z,21.73
2019-02-28T09:46:12.479Z,24.10
2019-02-28T09:48:54.275Z,26.17
2019-02-28T09:51:35.855Z,27.90
2019-02-28T09:54:17.409Z,30.73
2019-02-28T09:57:01.202Z,20.87
2019-02-28T09:59:43.598Z,28.53
2019-02-28T10:02:28.780Z,24.70
2019-02-28T10:05:11.817Z,30.77
2019-02-28T10:08:01.634Z,24.33
2019-02-28T10:10:38.776Z,25.50
2019-02-28T10:13:20.348Z,25.07
2019-02-28T10:16:01.664Z,27.73
2019-02-28T10:18:43.101Z,29.70
2019-02-28T10:21:25.373Z,30.20
2019-02-28T10:24:07.714Z,27.43
2019-02-28T10:26:51.508Z,28.47
2019-02-28T10:29:34.167Z,25.30
2019-02-28T10:32:19.116Z,30.70
2019-02-28T10:35:01.323Z,31.10
2019-02-28T10:37:44.253Z,30.63
2019-02-28T10:40:27.305Z,33.93
2019-02-28T10:43:15.528Z,34.97
2019-02-28T10:46:07.148Z,31.40
2019-02-28T10:48:41.848Z,30.30
2019-02-28T10:51:13.964Z,26.40
2019-02-28T10:53:40.691Z,30.47
2019-02-28T10:56:10.800Z,28.40
2019-02-28T10:58:40.861Z,25.60
2019-02-28T11:01:12.251Z,30.33
2019-02-28T11:03:42.515Z,25.17
2019-02-28T11:06:12.545Z,25.60
2019-02-28T11:08:44.548Z,30.20
2019-02-28T11:11:14.748Z,28.90
2019-02-28T11:13:45.219Z,25.73
2019-02-28T11:16:15.360Z,32.07
2019-02-28T11:18:45.432Z,34.73
2019-02-28T11:21:15.753Z,41.20
2019-02-28T11:23:46.488Z,39.57
2019-02-28T11:26:17.580Z,35.93
2019-02-28T11:28:47.643Z,33.37
2019-02-28T11:31:19.185Z,33.70
2019-02-28T11:33:49.788Z,34.03
2019-02-28T11:36:19.837Z,34.10
2019-02-28T11:38:52.495Z,38.80
2019-02-28T11:41:21.725Z,37.70
2019-02-28T11:43:52.084Z,40.70
2019-02-28T11:46:22.112Z,34.20
2019-02-28T11:48:54.081Z,35.83
2019-02-28T11:51:23.878Z,44.53
2019-02-28T11:53:53.893Z,41.93
2019-02-28T11:56:25.573Z,42.00
2019-02-28T11:58:55.664Z,40.30
2019-02-28T12:01:25.708Z,46.87
2019-02-28T12:03:55.612Z,36.33
2019-02-28T12:06:26.306Z,35.87
2019-02-28T12:08:56.365Z,37.27
2019-02-28T12:11:26.317Z,32.27
2019-02-28T12:13:56.288Z,31.40
2019-02-28T12:16:26.328Z,41.33
2019-02-28T12:18:56.379Z,31.53
2019-02-28T12:21:26.331Z,33.43
2019-02-28T12:23:57.288Z,37.50
2019-02-28T12:26:28.389Z,36.73
2019-02-28T12:28:58.418Z,36.10
2019-02-28T12:31:28.382Z,34.63
2019-02-28T12:33:58.287Z,45.83
2019-02-28T12:36:28.324Z,35.67
2019-02-28T12:38:59.455Z,37.70
2019-02-28T12:44:12.443Z,31.17
2019-02-28T12:46:53.839Z,28.23
2019-02-28T12:49:35.542Z,33.83
2019-02-28T12:52:17.128Z,34.03
2019-02-28T12:54:58.605Z,29.43
2019-02-28T12:57:40.573Z,28.03
2019-02-28T13:00:23.392Z,27.23
2019-02-28T13:03:05.729Z,33.90
2019-02-28T13:05:49.247Z,29.03
2019-02-28T13:08:30.358Z,27.77
2019-02-28T13:11:12.755Z,26.93
2019-02-28T13:13:54.896Z,28.73
2019-02-28T13:16:36.336Z,28.60
2019-02-28T13:19:20.125Z,26.93
2019-02-28T13:22:02.368Z,24.40
2019-02-28T13:24:46.401Z,33.50
2019-02-28T13:27:27.334Z,29.10
2019-02-28T13:29:57.408Z,26.57
2019-02-28T13:32:27.392Z,25.77
2019-02-28T13:34:57.544Z,23.43
2019-02-28T13:37:27.512Z,24.80
2019-02-28T13:39:57.420Z,27.70
2019-02-28T13:42:27.460Z,21.77
2019-02-28T13:44:57.521Z,24.50
2019-02-28T13:47:28.437Z,23.90
2019-02-28T13:49:58.495Z,19.67
2019-02-28T13:52:28.744Z,19.33
2019-02-28T13:54:59.093Z,18.97
2019-02-28T13:57:29.111Z,15.67
2019-02-28T13:59:59.162Z,13.60
2019-02-28T14:02:33.617Z,16.73
2019-02-28T14:05:03.017Z,16.30
2019-02-28T14:07:33.747Z,18.10
2019-02-28T14:10:05.081Z,14.07
2019-02-28T14:12:34.964Z,13.93
2019-02-28T14:15:05.456Z,12.50
2019-02-28T14:17:36.431Z,14.57
2019-02-28T14:20:08.563Z,15.43
2019-02-28T14:22:38.592Z,11.53
2019-02-28T14:25:09.261Z,15.10
2019-02-28T14:27:39.393Z,14.77
2019-02-28T14:30:11.293Z,12.17
2019-02-28T14:32:42.275Z,17.13
2019-02-28T14:35:15.002Z,14.30
2019-02-28T14:37:45.028Z,16.03
2019-02-28T14:40:17.937Z,12.57
2019-02-28T14:42:46.815Z,10.90
2019-02-28T14:45:17.331Z,11.23
2019-02-28T14:47:56.498Z,14.27
2019-02-28T14:50:20.286Z,13.30
2019-02-28T14:52:51.247Z,10.27
2019-02-28T14:55:21.456Z,12.17
2019-02-28T14:57:51.485Z,10.33
2019-02-28T15:00:25.517Z,13.53
2019-02-28T15:02:55.464Z,11.00
2019-02-28T15:05:26.035Z,10.73
2019-02-28T15:07:56.532Z,9.67
2019-02-28T15:10:26.930Z,11.77
2019-02-28T15:12:58.656Z,10.93
2019-02-28T15:15:30.733Z,14.17
2019-02-28T15:18:00.697Z,10.83
2019-02-28T15:20:32.929Z,12.67
2019-02-28T15:23:02.612Z,12.53
2019-02-28T15:25:32.651Z,9.07
2019-02-28T15:28:02.671Z,12.27
2019-02-28T15:30:33.779Z,11.33
2019-02-28T15:33:05.036Z,13.60
2019-02-28T15:35:35.077Z,10.30
2019-02-28T15:38:05.630Z,10.10
2019-02-28T15:40:40.442Z,12.67
2019-02-28T15:43:16.961Z,12.67
2019-02-28T15:45:45.900Z,10.20
2019-02-28T15:48:16.968Z,9.57
2019-02-28T15:50:51.153Z,11.13
2019-02-28T15:53:18.877Z,12.67
2019-02-28T15:55:49.324Z,12.73
2019-02-28T15:58:20.119Z,12.47
2019-02-28T16:00:53.736Z,12.00
2019-02-28T16:03:23.576Z,17.70
2019-02-28T16:05:53.740Z,12.63
2019-02-28T16:08:23.768Z,13.07
2019-02-28T16:10:53.901Z,17.60
2019-02-28T16:13:25.841Z,10.63
2019-02-28T16:15:56.153Z,12.43
2019-02-28T16:18:26.496Z,11.97
2019-02-28T16:20:56.577Z,14.40
2019-02-28T16:23:40.193Z,11.97
2019-02-28T16:26:18.222Z,14.03
2019-02-28T16:28:48.475Z,12.63
2019-02-28T16:31:19.301Z,9.43
2019-02-28T16:33:51.967Z,12.83
2019-02-28T16:36:27.012Z,10.83
2019-02-28T16:39:01.092Z,13.70
2019-02-28T16:41:36.923Z,11.47
2019-02-28T16:44:07.777Z,11.13
2019-02-28T16:46:38.643Z,9.50
2019-02-28T16:49:10.610Z,12.30
2019-02-28T16:51:42.256Z,11.53
2019-02-28T16:54:19.350Z,13.77
2019-02-28T16:56:49.210Z,14.63
2019-02-28T16:59:19.164Z,12.90
2019-02-28T17:01:51.419Z,12.37
2019-02-28T17:04:25.730Z,7.33
2019-02-28T17:06:57.178Z,10.03
2019-02-28T17:09:35.327Z,14.10
2019-02-28T17:12:37.508Z,10.87
2019-02-28T17:15:13.635Z,9.60
2019-02-28T17:17:50.160Z,12.77
2019-02-28T17:20:20.516Z,11.20
2019-02-28T17:22:51.485Z,14.93
2019-02-28T17:25:22.589Z,11.60
2019-02-28T17:28:07.120Z,12.33
2019-02-28T17:30:46.603Z,11.20
2019-02-28T17:33:17.011Z,8.97
2019-02-28T17:35:49.126Z,12.40
2019-02-28T17:38:19.184Z,11.90
2019-02-28T17:40:49.653Z,9.77
2019-02-28T17:43:24.058Z,14.03
2019-02-28T17:45:52.245Z,11.00
2019-02-28T17:48:56.975Z,10.97
2019-02-28T17:51:44.039Z,14.67
2019-02-28T17:55:00.858Z,8.57
2019-02-28T17:57:55.109Z,10.60
2019-02-28T18:00:54.492Z,10.13
2019-02-28T18:04:11.064Z,11.50
2019-02-28T18:07:26.696Z,11.60
2019-02-28T18:10:26.391Z,15.93
2019-02-28T18:13:25.904Z,10.87
2019-02-28T18:16:38.383Z,11.50
2019-02-28T18:19:43.795Z,11.07
2019-02-28T18:23:07.425Z,12.10
2019-02-28T18:26:38.530Z,9.40
2019-02-28T18:29:32.259Z,12.20
2019-02-28T18:32:02.295Z,11.37
2019-02-28T18:34:34.528Z,10.77
2019-02-28T18:37:04.772Z,14.03
2019-02-28T18:39:34.802Z,9.50
2019-02-28T18:42:05.004Z,7.43
2019-02-28T18:44:37.490Z,9.87
2019-02-28T18:47:07.616Z,9.87
2019-02-28T18:49:37.665Z,13.40
2019-02-28T18:52:07.691Z,10.13
2019-02-28T18:54:39.305Z,10.03
2019-02-28T18:57:09.448Z,9.33
2019-02-28T18:59:39.585Z,12.37
2019-02-28T19:02:09.812Z,13.47
2019-02-28T19:04:40.052Z,13.87
2019-02-28T19:07:10.075Z,11.60
2019-02-28T19:09:40.416Z,15.90
2019-02-28T19:12:10.444Z,10.47
2019-02-28T19:14:40.702Z,13.77
2019-02-28T19:17:10.656Z,11.97
2019-02-28T19:19:40.813Z,12.00
2019-02-28T19:22:11.139Z,12.77
2019-02-28T19:24:41.205Z,12.43
2019-02-28T19:27:11.324Z,9.80
2019-02-28T19:29:41.432Z,10.10
2019-02-28T19:32:11.455Z,7.60
2019-02-28T19:34:45.890Z,10.17
2019-02-28T19:37:15.992Z,5.93
2019-02-28T19:39:46.425Z,9.27
2019-02-28T19:42:16.540Z,8.73
2019-02-28T19:44:46.698Z,11.13
2019-02-28T19:47:17.167Z,11.47
2019-02-28T19:49:47.404Z,11.13
2019-02-28T19:52:17.454Z,12.43
2019-02-28T19:54:47.448Z,8.57
2019-02-28T19:57:17.573Z,10.60
2019-02-28T19:59:47.802Z,8.87
2019-02-28T20:02:18.010Z,9.20
2019-02-28T20:04:48.520Z,10.17
2019-02-28T20:07:18.653Z,12.73
2019-02-28T20:09:48.804Z,10.80
2019-02-28T20:12:18.933Z,11.40
2019-02-28T20:14:49.063Z,10.73
2019-02-28T20:17:19.024Z,12.07
2019-02-28T20:19:49.192Z,11.33
2019-02-28T20:22:19.231Z,10.37
2019-02-28T20:24:49.287Z,11.60
2019-02-28T20:27:19.236Z,9.33
2019-02-28T20:29:55.041Z,13.73
2019-02-28T20:32:21.080Z,13.60
2019-02-28T20:34:51.309Z,10.50
2019-02-28T20:37:21.215Z,13.40
2019-02-28T20:39:51.384Z,13.80
2019-02-28T20:42:21.471Z,12.67
2019-02-28T20:44:51.716Z,12.10
2019-02-28T20:47:21.592Z,12.33
2019-02-28T20:49:51.758Z,10.30
2019-02-28T20:52:21.842Z,9.37
2019-02-28T20:54:51.896Z,13.10
2019-02-28T20:57:21.836Z,10.13
2019-02-28T20:59:52.020Z,9.40
2019-02-28T21:02:21.992Z,9.47
2019-02-28T21:04:52.020Z,8.47
2019-02-28T21:07:22.312Z,7.13
2019-02-28T21:09:52.500Z,8.00
2019-02-28T21:12:22.708Z,9.40
2019-02-28T21:14:53.172Z,11.17
2019-02-28T21:17:29.402Z,9.50
2019-02-28T21:19:55.369Z,10.27
2019-02-28T21:22:26.042Z,7.47
2019-02-28T21:24:56.105Z,8.57
2019-02-28T21:27:26.596Z,9.63
2019-02-28T21:29:56.790Z,9.93
2019-02-28T21:32:27.256Z,9.10
2019-02-28T21:34:57.537Z,10.00
2019-02-28T21:37:27.812Z,7.53
2019-02-28T21:39:58.298Z,8.03
2019-02-28T21:42:28.529Z,6.60
2019-02-28T21:44:58.733Z,7.00
2019-02-28T21:47:28.992Z,5.07
2019-02-28T21:49:59.208Z,5.93
2019-02-28T21:52:29.394Z,5.53
2019-02-28T21:54:59.482Z,7.50
2019-02-28T21:57:29.941Z,4.13
2019-02-28T22:00:00.467Z,6.27
2019-02-28T22:02:30.797Z,4.43
2019-02-28T22:05:01.042Z,5.27
2019-02-28T22:07:31.180Z,4.60
2019-02-28T22:10:01.241Z,6.73
2019-02-28T22:12:31.162Z,6.93
2019-02-28T22:15:01.196Z,4.90
2019-02-28T22:17:31.241Z,5.70
2019-02-28T22:20:01.234Z,5.33
2019-02-28T22:22:31.367Z,4.30
2019-02-28T22:25:01.285Z,6.73
2019-02-28T22:27:31.335Z,6.57
2019-02-28T22:30:08.152Z,7.70
2019-02-28T22:32:43.707Z,5.33
2019-02-28T22:35:22.376Z,7.50
2019-02-28T22:37:52.476Z,6.17
2019-02-28T22:40:22.717Z,7.13
2019-02-28T22:42:53.122Z,6.57
2019-02-28T22:45:23.326Z,7.47
2019-02-28T22:47:53.668Z,6.03
2019-02-28T22:50:26.772Z,5.63
2019-02-28T22:52:57.052Z,4.87
2019-02-28T22:55:27.338Z,6.97
2019-02-28T22:57:57.368Z,9.43
2019-02-28T23:00:58.924Z,6.90
2019-02-28T23:03:30.107Z,6.90
2019-02-28T23:06:00.757Z,8.10
2019-02-28T23:08:31.000Z,6.33
2019-02-28T23:11:01.252Z,7.77
2019-02-28T23:13:31.560Z,5.80
2019-02-28T23:16:01.914Z,5.83
2019-02-28T23:18:32.074Z,8.93
2019-02-28T23:21:02.340Z,5.70
2019-02-28T23:23:32.414Z,9.50
2019-02-28T23:26:13.593Z,6.63
2019-02-28T23:28:53.888Z,7.73
2019-02-28T23:32:05.045Z,6.37
2019-02-28T23:34:54.885Z,7.50
2019-02-28T23:37:36.274Z,8.80
2019-02-28T23:40:18.459Z,5.20
2019-02-28T23:43:00.060Z,4.53
2019-02-28T23:45:41.622Z,7.60
2019-02-28T23:48:24.350Z,5.97
2019-02-28T23:51:06.205Z,6.13
2019-02-28T23:53:46.395Z,6.60
2019-02-28T23:56:35.661Z,5.00
2019-02-28T23:59:17.311Z,5.63
